Time;durP1;ratioP1;P1;durP2;ratioP2;P2;SDS_P1;SDS_P2;PMS_P1;PMS_P2;Temp;Humidity;BMP_temperature;BMP_pressure;BME280_temperature;BME280_humidity;BME280_pressure;Samples;Min_cycle;Max_cycle;Signal;HPM_P1;HPM_P2
2020/12/30 00:01:06;;;;;;;117.03;23.13;;;;;;;5.11;97.88;99272.53;3478834;28;20045;-51
2020/12/30 00:02:47;;;;;;;147.85;26.33;;;;;;;5.12;98.12;99278.56;3479875;28;20060;-52
2020/12/30 00:04:28;;;;;;;135.35;24.73;;;;;;;5.13;98.05;99282.84;3482021;28;20126;-51
2020/12/30 00:06:10;;;;;;;134.48;23.08;;;;;;;5.12;98.10;99284.56;3476643;28;20057;-50
2020/12/30 00:07:51;;;;;;;139.85;25.08;;;;;;;5.12;98.04;99281.97;3479612;28;20695;-51
2020/12/30 00:09:32;;;;;;;125.75;23.30;;;;;;;5.12;98.02;99281.97;3480886;28;20100;-51
2020/12/30 00:11:14;;;;;;;157.43;26.30;;;;;;;5.12;98.04;99286.25;3478348;28;20091;-50
2020/12/30 00:12:56;;;;;;;139.50;23.58;;;;;;;5.12;97.93;99287.13;3481330;28;20049;-52
2020/12/30 00:14:37;;;;;;;230.38;32.70;;;;;;;5.11;98.22;99294.78;3478543;28;20072;-51
2020/12/30 00:16:19;;;;;;;220.93;35.13;;;;;;;5.10;98.09;99296.50;3480277;28;20068;-52
2020/12/30 00:18:00;;;;;;;126.57;28.92;;;;;;;5.10;98.00;99303.34;3481827;28;20061;-48
2020/12/30 00:19:41;;;;;;;206.02;31.23;;;;;;;5.09;98.19;99299.03;3479558;28;20087;-51
2020/12/30 00:21:23;;;;;;;107.95;24.10;;;;;;;5.07;98.19;99301.53;3479308;28;20052;-50
2020/12/30 00:23:04;;;;;;;188.95;26.20;;;;;;;5.08;98.14;99300.72;3481224;28;20079;-50
2020/12/30 00:24:46;;;;;;;176.00;30.80;;;;;;;5.06;97.92;99297.25;3478588;28;20095;-51
2020/12/30 00:26:27;;;;;;;91.20;21.35;;;;;;;5.07;98.10;99295.53;3481122;28;20049;-53
2020/12/30 00:28:09;;;;;;;84.07;21.38;;;;;;;5.06;97.99;99291.22;3479202;28;20144;-51
2020/12/30 00:29:51;;;;;;;99.40;21.30;;;;;;;5.05;98.15;99297.19;3476507;28;20076;-50
2020/12/30 00:31:33;;;;;;;148.55;28.17;;;;;;;5.05;97.90;99292.06;3481728;28;20087;-51
2020/12/30 00:33:14;;;;;;;109.35;25.30;;;;;;;5.03;98.26;99291.16;3479030;28;20052;-52
2020/12/30 00:34:56;;;;;;;89.65;23.40;;;;;;;5.01;98.11;99298.81;3479606;28;20083;-51
2020/12/30 00:36:38;;;;;;;115.88;26.90;;;;;;;5.01;97.89;99306.53;3479900;28;20044;-51
2020/12/30 00:38:19;;;;;;;91.07;22.05;;;;;;;5.00;98.17;99307.31;3476905;28;20555;-50
2020/12/30 00:40:05;;;;;;;72.30;19.02;;;;;;;5.01;97.99;99300.47;3478466;28;20422;-51
2020/12/30 00:41:52;;;;;;;79.65;20.85;;;;;;;5.00;98.10;99286.75;3476617;28;20506;-50
2020/12/30 00:43:34;;;;;;;79.28;17.30;;;;;;;4.99;98.18;99296.19;3477726;28;20041;-52
2020/12/30 00:45:15;;;;;;;73.53;17.73;;;;;;;5.00;98.24;99284.19;3480487;28;20055;-51
2020/12/30 00:46:58;;;;;;;168.30;25.55;;;;;;;5.01;98.09;99293.66;3480169;28;20048;-50
2020/12/30 00:48:39;;;;;;;99.90;18.60;;;;;;;4.99;98.06;99295.31;3478254;28;20096;-53
2020/12/30 00:50:20;;;;;;;187.02;26.17;;;;;;;4.99;97.95;99301.31;3481429;28;20041;-51
2020/12/30 00:52:02;;;;;;;116.57;20.67;;;;;;;4.99;97.94;99293.63;3478309;28;20048;-51
2020/12/30 00:53:43;;;;;;;83.68;19.08;;;;;;;4.98;98.18;99296.13;3479674;28;20056;-52
2020/12/30 00:55:25;;;;;;;137.77;21.83;;;;;;;4.99;98.21;99292.75;3480502;28;20060;-52
2020/12/30 00:57:06;;;;;;;51.75;16.13;;;;;;;4.99;97.98;99292.75;3479160;28;20047;-49
2020/12/30 00:58:48;;;;;;;74.97;19.52;;;;;;;4.99;98.05;99292.75;3481613;28;20056;-51
2020/12/30 01:00:30;;;;;;;57.65;17.42;;;;;;;4.98;98.21;99288.44;3478011;28;20403;-51
2020/12/30 01:02:12;;;;;;;82.45;20.13;;;;;;;4.98;97.99;99296.13;3479081;28;20044;-51
2020/12/30 01:03:54;;;;;;;54.30;18.00;;;;;;;4.98;98.10;99289.28;3481264;28;20102;-51
2020/12/30 01:05:35;;;;;;;64.38;18.20;;;;;;;5.00;98.04;99297.03;3476949;28;20041;-51
2020/12/30 01:07:18;;;;;;;47.80;16.75;;;;;;;5.01;98.05;99293.66;3479805;28;20118;-53
2020/12/30 01:08:59;;;;;;;84.20;20.95;;;;;;;5.02;98.11;99291.97;3480768;28;20044;-51
2020/12/30 01:10:41;;;;;;;94.82;21.17;;;;;;;5.04;98.08;99298.00;3478389;28;20045;-51
2020/12/30 01:12:23;;;;;;;86.68;21.73;;;;;;;5.04;98.17;99287.72;3480895;28;20055;-50
2020/12/30 01:14:04;;;;;;;60.08;18.48;;;;;;;5.05;98.19;99297.19;3480471;28;20045;-53
2020/12/30 01:15:46;;;;;;;71.93;18.85;;;;;;;5.06;98.03;99301.50;3477766;28;20498;-52
2020/12/30 01:17:27;;;;;;;99.47;21.80;;;;;;;5.08;98.06;99303.31;3481081;28;20080;-52
2020/12/30 01:19:08;;;;;;;78.60;20.67;;;;;;;5.10;98.14;99298.22;3477745;28;20132;-51
2020/12/30 01:20:50;;;;;;;106.90;22.25;;;;;;;5.11;98.14;99300.81;3474441;28;20524;-51
2020/12/30 01:22:31;;;;;;;77.53;20.13;;;;;;;5.14;98.00;99294.88;3481431;28;20075;-51
2020/12/30 01:24:12;;;;;;;67.10;20.35;;;;;;;5.15;98.24;99292.38;3480918;28;20060;-51
2020/12/30 01:25:55;;;;;;;66.90;20.17;;;;;;;5.17;98.12;99300.13;3483236;28;20048;-51
2020/12/30 01:27:37;;;;;;;71.10;20.02;;;;;;;5.17;97.98;99297.56;3481531;28;20079;-53
2020/12/30 01:29:20;;;;;;;69.07;19.30;;;;;;;5.19;98.15;99303.59;3481131;28;20052;-51
2020/12/30 01:31:02;;;;;;;65.60;18.50;;;;;;;5.23;98.16;99309.72;3483408;28;20517;-52
2020/12/30 01:32:43;;;;;;;66.97;18.67;;;;;;;5.23;97.94;99308.00;3482911;28;20041;-51
2020/12/30 01:34:24;;;;;;;77.70;19.85;;;;;;;5.24;98.24;99312.34;3481977;28;20067;-51
2020/12/30 01:36:06;;;;;;;67.45;18.55;;;;;;;5.25;98.06;99310.63;3483260;28;20106;-51
2020/12/30 01:37:47;;;;;;;64.07;19.42;;;;;;;5.27;98.22;99303.81;3481059;28;20049;-52
2020/12/30 01:39:29;;;;;;;83.88;19.60;;;;;;;5.28;97.98;99293.59;3484668;28;20088;-51
2020/12/30 01:41:10;;;;;;;78.05;20.60;;;;;;;5.30;98.15;99293.63;3480933;28;20057;-51
2020/12/30 01:42:52;;;;;;;84.50;19.60;;;;;;;5.30;98.23;99294.50;3478738;28;20052;-51
2020/12/30 01:44:34;;;;;;;70.18;19.83;;;;;;;5.31;98.47;99283.41;3483423;28;20140;-52
2020/12/30 01:46:17;;;;;;;111.45;23.83;;;;;;;5.32;98.62;99277.44;3481188;28;20052;-51
2020/12/30 01:48:04;;;;;;;85.90;22.45;;;;;;;5.31;98.61;99280.81;3481614;28;20057;-51
2020/12/30 01:49:47;;;;;;;92.32;22.90;;;;;;;5.33;98.67;99286.88;3483352;28;20049;-51
2020/12/30 01:51:29;;;;;;;99.50;22.08;;;;;;;5.34;98.52;99285.16;3480366;28;20083;-54
2020/12/30 01:53:12;;;;;;;87.28;21.52;;;;;;;5.34;98.53;99280.91;3478466;28;20056;-53
2020/12/30 01:54:54;;;;;;;79.32;20.35;;;;;;;5.35;98.57;99279.19;3483145;28;20045;-51
2020/12/30 01:56:35;;;;;;;55.33;17.88;;;;;;;5.35;98.70;99274.06;3480199;28;20068;-51
2020/12/30 01:58:16;;;;;;;119.25;23.08;;;;;;;5.36;98.57;99278.38;3482700;28;20509;-52
2020/12/30 01:59:58;;;;;;;181.15;29.70;;;;;;;5.36;98.45;99271.53;3481591;28;20349;-53
2020/12/30 02:01:43;;;;;;;115.07;22.63;;;;;;;5.37;98.82;99278.41;3480450;28;20462;-51
2020/12/30 02:03:26;;;;;;;113.13;22.48;;;;;;;5.37;98.70;99286.13;3483144;28;20058;-51
2020/12/30 02:05:09;;;;;;;77.30;20.40;;;;;;;5.37;98.80;99283.56;3481653;28;20480;-51
2020/12/30 02:06:51;;;;;;;93.90;20.48;;;;;;;5.39;98.52;99291.31;3479653;28;20051;-52
2020/12/30 02:08:32;;;;;;;85.22;22.08;;;;;;;5.40;98.55;99282.78;3482979;28;20472;-50
2020/12/30 02:10:16;;;;;;;124.15;26.23;;;;;;;5.40;98.78;99277.63;3479531;28;20501;-51
2020/12/30 02:11:57;;;;;;;72.95;19.38;;;;;;;5.42;98.70;99277.69;3482011;28;20131;-52
2020/12/30 02:13:39;;;;;;;84.38;22.02;;;;;;;5.43;98.77;99271.69;3481329;28;20053;-51
2020/12/30 02:15:26;;;;;;;93.65;22.75;;;;;;;5.42;98.76;99268.25;3479513;28;20049;-52
2020/12/30 02:17:12;;;;;;;82.97;21.17;;;;;;;5.45;98.61;99281.22;3482295;28;20080;-51
2020/12/30 02:18:54;;;;;;;89.45;20.70;;;;;;;5.45;98.67;99280.34;3480852;28;20056;-51
2020/12/30 02:20:35;;;;;;;91.95;22.95;;;;;;;5.46;98.58;99285.50;3480605;28;20620;-51
2020/12/30 02:22:21;;;;;;;92.55;22.30;;;;;;;5.47;98.85;99282.13;3483054;28;20053;-51
2020/12/30 02:24:02;;;;;;;80.28;21.15;;;;;;;5.47;98.58;99273.53;3482165;28;20501;-51
2020/12/30 02:25:44;;;;;;;83.20;22.35;;;;;;;5.48;98.74;99267.53;3479737;28;20057;-52
2020/12/30 02:27:26;;;;;;;112.38;24.77;;;;;;;5.48;98.49;99268.44;3482552;28;20053;-52
2020/12/30 02:29:07;;;;;;;92.40;21.48;;;;;;;5.47;98.97;99265.81;3479872;28;20080;-51
2020/12/30 02:30:49;;;;;;;94.43;24.75;;;;;;;5.48;98.63;99265.88;3482141;28;20056;-51
2020/12/30 02:32:31;;;;;;;90.05;24.42;;;;;;;5.49;98.48;99270.16;3480963;28;20422;-53
2020/12/30 02:34:12;;;;;;;93.68;24.48;;;;;;;5.49;98.90;99270.16;3481311;28;20053;-52
2020/12/30 02:35:54;;;;;;;96.97;24.27;;;;;;;5.50;98.66;99271.03;3482770;28;20049;-51
2020/12/30 02:37:35;;;;;;;122.28;25.98;;;;;;;5.49;98.66;99267.59;3479572;28;20111;-53
2020/12/30 02:39:17;;;;;;;121.68;27.38;;;;;;;5.50;98.63;99268.47;3479397;28;20045;-53
2020/12/30 02:41:00;;;;;;;85.95;21.17;;;;;;;5.50;98.71;99271.03;3481129;28;20044;-52
2020/12/30 02:42:41;;;;;;;86.47;21.38;;;;;;;5.49;98.59;99272.75;3479659;28;20040;-51
2020/12/30 02:44:22;;;;;;;102.20;25.67;;;;;;;5.49;98.61;99269.31;3481526;28;20115;-51
2020/12/30 02:46:04;;;;;;;89.82;23.60;;;;;;;5.49;98.68;99277.03;3481187;28;20049;-53
2020/12/30 02:47:45;;;;;;;103.32;25.25;;;;;;;5.47;98.95;99274.41;3480201;28;20045;-51
2020/12/30 02:49:26;;;;;;;84.82;22.02;;;;;;;5.47;98.60;99266.69;3482740;28;20572;-51
2020/12/30 02:51:08;;;;;;;97.18;23.88;;;;;;;5.47;98.57;99273.53;3480408;28;20080;-53
2020/12/30 02:52:50;;;;;;;114.65;27.00;;;;;;;5.46;98.80;99261.50;3480541;28;20048;-52
2020/12/30 02:54:31;;;;;;;110.95;26.83;;;;;;;5.46;98.64;99270.06;3480068;28;20044;-51
2020/12/30 02:56:14;;;;;;;75.28;22.83;;;;;;;5.47;98.85;99268.41;3482135;28;20088;-51
2020/12/30 02:57:55;;;;;;;84.63;23.10;;;;;;;5.45;98.72;99267.50;3481778;28;20365;-51
2020/12/30 02:59:37;;;;;;;115.78;26.55;;;;;;;5.46;98.68;99261.50;3481479;28;20076;-54
2020/12/30 03:01:18;;;;;;;104.82;26.20;;;;;;;5.45;98.81;99270.06;3480233;28;20098;-50
2020/12/30 03:02:59;;;;;;;103.20;25.52;;;;;;;5.45;98.95;99268.34;3482530;28;20425;-50
2020/12/30 03:04:41;;;;;;;109.45;27.00;;;;;;;5.45;98.90;99267.50;3480575;28;20072;-52
2020/12/30 03:06:24;;;;;;;105.22;26.80;;;;;;;5.45;98.69;99270.06;3480459;28;20506;-51
2020/12/30 03:08:06;;;;;;;102.90;26.33;;;;;;;5.45;98.77;99264.91;3482589;28;20080;-50
2020/12/30 03:09:47;;;;;;;103.65;24.88;;;;;;;5.45;98.71;99267.50;3479507;28;20469;-54
2020/12/30 03:11:29;;;;;;;104.95;26.98;;;;;;;5.45;98.88;99264.91;3480143;28;20580;-52
2020/12/30 03:13:11;;;;;;;87.30;24.63;;;;;;;5.44;98.81;99260.59;3481465;28;20048;-52
2020/12/30 03:14:52;;;;;;;92.82;26.23;;;;;;;5.44;98.63;99265.72;3480009;28;20060;-52
2020/12/30 03:16:34;;;;;;;99.65;26.83;;;;;;;5.43;98.83;99263.97;3481874;28;20045;-51
2020/12/30 03:18:15;;;;;;;104.22;27.10;;;;;;;5.41;98.95;99263.06;3480680;28;20095;-54
2020/12/30 03:19:57;;;;;;;102.57;26.60;;;;;;;5.39;98.65;99263.03;3480554;28;20086;-53
2020/12/30 03:21:38;;;;;;;128.80;27.45;;;;;;;5.38;99.70;99251.00;3482367;28;20045;-53
2020/12/30 03:23:20;;;;;;;138.10;28.38;;;;;;;5.36;99.77;99261.25;3479482;28;20628;-54
2020/12/30 03:25:01;;;;;;;117.07;27.88;;;;;;;5.36;99.99;99255.25;3480213;28;20049;-52
2020/12/30 03:26:43;;;;;;;135.85;29.23;;;;;;;5.34;99.80;99246.59;3481816;28;20076;-51
2020/12/30 03:28:24;;;;;;;144.90;32.92;;;;;;;5.33;99.91;99242.28;3481324;28;20478;-52
2020/12/30 03:30:06;;;;;;;128.80;28.55;;;;;;;5.32;99.99;99241.44;3482171;28;20045;-51
2020/12/30 03:31:48;;;;;;;98.25;27.63;;;;;;;5.31;100.00;99246.53;3481036;28;20048;-52
2020/12/30 03:33:29;;;;;;;131.70;31.00;;;;;;;5.29;99.74;99241.34;3479846;28;20111;-54
2020/12/30 03:35:10;;;;;;;126.07;29.38;;;;;;;5.29;99.98;99237.88;3481991;28;20048;-53
2020/12/30 03:36:52;;;;;;;110.45;31.58;;;;;;;5.27;99.98;99243.00;3477076;28;20044;-52
2020/12/30 03:38:33;;;;;;;119.10;31.08;;;;;;;5.27;99.87;99231.81;3479307;28;20045;-51
2020/12/30 03:40:14;;;;;;;107.38;29.40;;;;;;;5.25;100.00;99236.06;3480799;28;20049;-53
2020/12/30 03:41:56;;;;;;;129.95;32.22;;;;;;;5.25;100.00;99242.06;3478245;28;20044;-51
2020/12/30 03:43:37;;;;;;;126.50;32.72;;;;;;;5.25;100.00;99241.19;3481726;28;20045;-54
2020/12/30 03:45:19;;;;;;;115.93;31.67;;;;;;;5.24;99.85;99230.03;3479668;28;20056;-52
2020/12/30 03:47:00;;;;;;;123.18;32.13;;;;;;;5.24;100.00;99229.19;3479977;28;20044;-54
2020/12/30 03:48:42;;;;;;;137.75;31.92;;;;;;;5.24;99.92;99230.03;3482057;28;20045;-52
2020/12/30 03:50:23;;;;;;;173.77;38.40;;;;;;;5.24;99.93;99237.75;3480047;28;20045;-51
2020/12/30 03:52:04;;;;;;;106.25;28.65;;;;;;;5.22;99.87;99242.00;3479648;28;20083;-53
2020/12/30 03:53:46;;;;;;;147.05;35.75;;;;;;;5.22;100.00;99242.00;3481934;28;20453;-54
2020/12/30 03:55:27;;;;;;;109.57;31.38;;;;;;;5.20;99.94;99235.94;3479673;28;20080;-53
2020/12/30 03:57:09;;;;;;;163.60;36.88;;;;;;;5.20;99.92;99242.75;3481305;28;20138;-53
2020/12/30 03:58:50;;;;;;;149.00;37.10;;;;;;;5.18;100.00;99240.16;3479364;28;20045;-52
2020/12/30 04:00:40;;;;;;;129.55;29.80;;;;;;;5.18;99.95;99245.28;3477434;28;20099;-52
2020/12/30 04:02:21;;;;;;;119.03;31.42;;;;;;;5.16;99.78;99234.97;3481824;28;20044;-52
2020/12/30 04:04:02;;;;;;;125.97;34.78;;;;;;;5.16;99.83;99237.56;3479742;28;20079;-52
2020/12/30 04:05:44;;;;;;;120.32;34.30;;;;;;;5.14;99.80;99240.91;3479122;28;20041;-51
2020/12/30 04:07:25;;;;;;;110.80;33.17;;;;;;;5.14;99.78;99241.75;3481983;28;20064;-52
2020/12/30 04:09:06;;;;;;;107.88;30.48;;;;;;;5.13;99.93;99249.41;3479312;28;20456;-52
2020/12/30 04:10:49;;;;;;;102.25;31.83;;;;;;;5.14;99.73;99246.03;3480259;28;20471;-51
2020/12/30 04:12:31;;;;;;;135.80;35.88;;;;;;;5.14;99.79;99252.03;3481579;28;20056;-52
2020/12/30 04:14:12;;;;;;;132.85;35.30;;;;;;;5.15;99.80;99247.78;3476143;28;20187;-53
2020/12/30 04:15:53;;;;;;;125.65;31.95;;;;;;;5.16;100.00;99252.09;3481701;28;20068;-51
2020/12/30 04:17:35;;;;;;;122.20;33.00;;;;;;;5.16;99.82;99255.56;3480062;28;20049;-54
2020/12/30 04:19:16;;;;;;;104.07;30.48;;;;;;;5.17;100.00;99261.56;3480234;28;20049;-51
2020/12/30 04:20:58;;;;;;;124.22;34.45;;;;;;;5.17;99.86;99265.00;3481795;28;20055;-52
2020/12/30 04:22:39;;;;;;;179.85;42.63;;;;;;;5.17;99.93;99264.13;3480532;28;20048;-54
2020/12/30 04:24:20;;;;;;;143.15;36.28;;;;;;;5.16;100.00;99260.69;3479685;28;20056;-51
2020/12/30 04:26:02;;;;;;;109.57;34.30;;;;;;;5.15;99.86;99269.22;3480578;28;20045;-53
2020/12/30 04:27:44;;;;;;;123.93;35.58;;;;;;;5.15;100.00;99266.66;3478383;28;20452;-54
2020/12/30 04:29:25;;;;;;;114.53;33.40;;;;;;;5.13;99.96;99260.59;3481556;28;20053;-51
2020/12/30 04:31:10;;;;;;;126.00;33.60;;;;;;;5.12;99.85;99257.97;3479333;28;20076;-53
2020/12/30 04:32:51;;;;;;;148.93;32.88;;;;;;;5.11;100.00;99251.09;3476083;28;20053;-52
2020/12/30 04:34:33;;;;;;;105.38;29.63;;;;;;;5.10;99.93;99249.38;3481727;28;20060;-52
2020/12/30 04:36:14;;;;;;;129.98;33.40;;;;;;;5.08;99.99;99249.31;3478924;28;20045;-54
2020/12/30 04:37:56;;;;;;;114.60;34.60;;;;;;;5.07;99.98;99246.69;3479502;28;20076;-52
2020/12/30 04:39:37;;;;;;;114.70;32.13;;;;;;;5.05;99.96;99246.66;3481438;28;20072;-52
2020/12/30 04:41:25;;;;;;;128.15;34.83;;;;;;;5.05;99.99;99248.34;3478257;28;20048;-54
2020/12/30 04:43:09;;;;;;;122.97;34.85;;;;;;;5.04;100.00;99244.03;3479201;28;20048;-54
2020/12/30 04:44:54;;;;;;;127.20;34.30;;;;;;;5.04;99.87;99249.16;3479896;28;20080;-54
2020/12/30 04:46:36;;;;;;;106.50;32.85;;;;;;;5.03;100.00;99252.59;3476777;28;20053;-54
2020/12/30 04:48:19;;;;;;;109.28;31.48;;;;;;;5.03;100.00;99250.00;3481389;28;20049;-53
2020/12/30 04:50:01;;;;;;;120.20;35.80;;;;;;;5.03;99.79;99243.16;3479140;28;20045;-54
2020/12/30 04:51:42;;;;;;;97.38;29.85;;;;;;;5.03;100.00;99250.88;3479299;28;20128;-54
2020/12/30 04:53:24;;;;;;;151.70;34.30;;;;;;;5.02;99.84;99243.13;3481404;28;20489;-51
2020/12/30 04:55:06;;;;;;;98.15;31.90;;;;;;;5.01;99.82;99244.81;3478135;28;20045;-54
2020/12/30 04:56:59;;;;;;;105.40;30.25;;;;;;;5.02;100.00;99240.53;3477886;28;20102;-51
2020/12/30 04:58:41;;;;;;;97.18;30.55;;;;;;;5.02;99.93;99235.41;3481262;28;20049;-54
2020/12/30 05:00:23;;;;;;;104.45;32.78;;;;;;;5.02;100.00;99232.84;3479122;28;20084;-51
2020/12/30 05:02:06;;;;;;;102.28;32.45;;;;;;;5.02;99.93;99235.41;3479924;28;20426;-52
2020/12/30 05:03:49;;;;;;;98.28;30.70;;;;;;;5.01;99.89;99226.81;3480655;28;20049;-55
2020/12/30 05:05:31;;;;;;;100.50;31.20;;;;;;;5.01;99.91;99231.97;3478693;28;20049;-54
2020/12/30 05:07:14;;;;;;;83.80;26.90;;;;;;;5.02;99.73;99233.69;3478698;28;20142;-52
2020/12/30 05:08:57;;;;;;;104.45;31.70;;;;;;;5.02;99.81;99236.28;3477220;28;20399;-52
2020/12/30 05:10:41;;;;;;;92.38;29.77;;;;;;;5.03;99.93;99238.03;3479458;28;20075;-55
2020/12/30 05:12:23;;;;;;;116.00;31.48;;;;;;;5.05;99.87;99230.34;3481212;28;20053;-53
2020/12/30 05:14:05;;;;;;;99.85;30.05;;;;;;;5.05;99.99;99236.38;3479630;28;20052;-55
2020/12/30 05:15:47;;;;;;;92.45;29.17;;;;;;;5.06;100.00;99247.50;3479930;28;20048;-53
2020/12/30 05:17:29;;;;;;;126.10;32.80;;;;;;;5.05;99.85;99245.78;3481126;28;20506;-53
2020/12/30 05:19:10;;;;;;;83.60;26.98;;;;;;;5.04;99.87;99254.31;3478843;28;20095;-52
2020/12/30 05:20:52;;;;;;;94.22;28.73;;;;;;;5.04;100.00;99260.34;3477924;28;20048;-53
2020/12/30 05:22:33;;;;;;;84.75;28.70;;;;;;;5.04;100.00;99260.34;3478366;28;20084;-53
2020/12/30 05:24:14;;;;;;;105.60;31.02;;;;;;;5.04;99.97;99262.91;3478809;28;20494;-52
2020/12/30 05:25:56;;;;;;;104.28;30.40;;;;;;;5.05;100.00;99259.50;3480929;28;20052;-52
2020/12/30 05:27:38;;;;;;;87.60;27.40;;;;;;;5.05;100.00;99267.22;3478176;28;20139;-52
2020/12/30 05:29:22;;;;;;;89.78;27.70;;;;;;;5.05;100.00;99269.78;3479769;28;20045;-53
2020/12/30 05:31:03;;;;;;;95.95;26.83;;;;;;;5.05;99.79;99266.34;3481036;28;20136;-53
2020/12/30 05:32:45;;;;;;;87.70;28.92;;;;;;;5.06;99.81;99268.97;3478822;28;20068;-52
2020/12/30 05:34:26;;;;;;;77.80;26.10;;;;;;;5.06;100.00;99265.50;3480184;28;20045;-52
2020/12/30 05:36:08;;;;;;;81.53;26.52;;;;;;;5.05;100.00;99266.34;3478874;28;20048;-54
2020/12/30 05:37:50;;;;;;;85.53;27.15;;;;;;;5.07;99.98;99269.84;3478429;28;20060;-52
2020/12/30 05:39:33;;;;;;;79.65;26.35;;;;;;;5.07;100.00;99269.84;3480879;28;20084;-53
2020/12/30 05:41:18;;;;;;;82.33;26.70;;;;;;;5.07;100.00;99273.25;3478752;28;20413;-52
2020/12/30 05:43:10;;;;;;;77.45;25.13;;;;;;;5.07;100.00;99269.84;3476917;28;20041;-53
2020/12/30 05:44:55;;;;;;;72.78;24.50;;;;;;;5.06;99.95;99268.06;3478102;28;20521;-54
2020/12/30 05:46:36;;;;;;;72.28;23.90;;;;;;;5.07;99.80;99273.25;3477808;28;20072;-54
2020/12/30 05:48:19;;;;;;;67.65;23.17;;;;;;;5.08;100.00;99272.44;3478867;28;20041;-54
2020/12/30 05:50:03;;;;;;;72.72;24.10;;;;;;;5.09;100.00;99270.75;3479148;28;20501;-55
2020/12/30 05:51:44;;;;;;;65.30;22.88;;;;;;;5.10;100.00;99273.38;3478699;28;20041;-54
2020/12/30 05:53:26;;;;;;;69.55;25.45;;;;;;;5.11;99.92;99281.94;3479795;28;20064;-54
2020/12/30 05:55:09;;;;;;;68.38;23.02;;;;;;;5.11;100.00;99285.41;3479911;28;20040;-54
2020/12/30 05:56:50;;;;;;;82.13;24.88;;;;;;;5.11;99.89;99281.94;3479048;28;20041;-52
2020/12/30 05:58:35;;;;;;;69.50;24.25;;;;;;;5.12;99.89;99276.84;3480980;28;20087;-54
2020/12/30 06:00:17;;;;;;;69.65;24.60;;;;;;;5.13;100.00;99282.84;3478323;28;20040;-52
2020/12/30 06:02:01;;;;;;;83.50;25.27;;;;;;;5.12;99.93;99287.13;3477307;28;20382;-53
2020/12/30 06:03:42;;;;;;;76.75;25.63;;;;;;;5.12;99.90;99293.97;3480948;28;20049;-53
2020/12/30 06:05:24;;;;;;;96.45;26.50;;;;;;;5.11;100.00;99295.69;3477683;28;20505;-51
2020/12/30 06:07:05;;;;;;;63.40;22.00;;;;;;;5.11;100.00;99293.13;3479314;28;20045;-54
2020/12/30 06:08:48;;;;;;;76.55;23.70;;;;;;;5.11;99.87;99287.97;3481676;28;20143;-51
2020/12/30 06:10:30;;;;;;;76.78;23.55;;;;;;;5.10;99.95;99288.78;3480668;28;20199;-54
2020/12/30 06:12:13;;;;;;;61.97;20.73;;;;;;;5.10;100.00;99278.50;3482627;28;20064;-54
2020/12/30 06:13:55;;;;;;;69.38;21.50;;;;;;;5.10;100.00;99288.78;3480707;28;20101;-52
2020/12/30 06:15:38;;;;;;;91.13;25.50;;;;;;;5.11;100.00;99293.13;3480573;28;20076;-53
2020/12/30 06:17:29;;;;;;;95.07;26.90;;;;;;;5.10;100.00;99299.06;3482964;28;20056;-51
2020/12/30 06:19:11;;;;;;;125.75;25.60;;;;;;;5.10;99.92;99298.22;3480302;28;20305;-52
2020/12/30 06:20:53;;;;;;;70.88;21.42;;;;;;;5.10;100.00;99303.34;3477263;28;20048;-54
2020/12/30 06:22:38;;;;;;;67.25;20.40;;;;;;;5.09;100.00;99307.59;3482852;28;20429;-55
2020/12/30 06:24:20;;;;;;;94.10;25.38;;;;;;;5.09;99.98;99306.72;3480190;28;20456;-54
2020/12/30 06:26:06;;;;;;;100.70;25.25;;;;;;;5.10;100.00;99299.06;3480503;28;20049;-54
2020/12/30 06:27:48;;;;;;;137.35;26.17;;;;;;;5.09;99.90;99294.75;3483168;28;20057;-54
2020/12/30 06:29:30;;;;;;;74.55;22.15;;;;;;;5.08;100.00;99284.44;3480732;28;20462;-55
2020/12/30 06:31:12;;;;;;;146.25;26.80;;;;;;;5.07;100.00;99291.25;3481394;28;20053;-55
2020/12/30 06:32:54;;;;;;;63.53;21.17;;;;;;;5.07;99.77;99291.25;3481228;28;20048;-53
2020/12/30 06:34:35;;;;;;;83.50;23.05;;;;;;;5.07;99.70;99290.41;3481189;28;20571;-52
2020/12/30 06:36:23;;;;;;;115.90;26.77;;;;;;;5.07;99.94;99293.84;3482956;28;20079;-54
2020/12/30 06:38:18;;;;;;;59.03;20.80;;;;;;;5.09;99.96;99281.03;3480162;28;20045;-53
2020/12/30 06:40:25;;;;;;;52.80;19.80;;;;;;;5.09;99.99;99281.88;3478730;28;20056;-54
2020/12/30 06:42:07;;;;;;;77.13;21.13;;;;;;;5.10;99.87;99280.22;3479673;28;20149;-53
2020/12/30 06:43:50;;;;;;;78.68;22.85;;;;;;;5.10;99.93;99281.06;3482581;28;20077;-54
2020/12/30 06:45:52;;;;;;;85.65;22.77;;;;;;;5.11;100.00;99269.97;3478274;28;20049;-54
2020/12/30 06:47:57;;;;;;;61.75;19.17;;;;;;;5.13;99.86;99267.41;3477563;28;20049;-55
2020/12/30 06:49:39;;;;;;;74.35;21.42;;;;;;;5.13;99.89;99259.72;3481125;28;20076;-55
2020/12/30 06:51:21;;;;;;;72.20;23.88;;;;;;;5.14;99.86;99261.47;3479832;28;20048;-54
2020/12/30 06:53:31;;;;;;;65.85;22.50;;;;;;;5.16;99.82;99259.81;3479997;28;20179;-52
2020/12/30 06:55:13;;;;;;;66.38;23.13;;;;;;;5.16;100.00;99260.69;3480063;28;20056;-54
2020/12/30 06:56:54;;;;;;;59.33;20.65;;;;;;;5.17;99.97;99257.28;3480428;28;20094;-53
2020/12/30 06:58:46;;;;;;;58.83;20.65;;;;;;;5.19;99.82;99254.75;3480166;28;20056;-54
2020/12/30 07:00:37;;;;;;;102.70;22.45;;;;;;;5.20;100.00;99255.63;3481597;28;20110;-53
2020/12/30 07:02:18;;;;;;;67.95;21.17;;;;;;;5.22;99.91;99264.25;3479317;28;20072;-54
2020/12/30 07:04:08;;;;;;;100.90;24.42;;;;;;;5.23;99.77;99260.84;3480228;28;20053;-51
2020/12/30 07:05:49;;;;;;;102.50;24.92;;;;;;;5.23;100.00;99260.84;3482729;28;20055;-52
2020/12/30 07:07:31;;;;;;;80.28;21.42;;;;;;;5.23;100.00;99261.72;3478087;28;20056;-55
2020/12/30 07:09:13;;;;;;;84.35;22.15;;;;;;;5.24;99.90;99265.19;3475299;28;20057;-55
2020/12/30 07:10:54;;;;;;;78.75;22.52;;;;;;;5.25;100.00;99257.47;3482432;28;20098;-54
2020/12/30 07:12:38;;;;;;;109.82;25.20;;;;;;;5.23;99.92;99259.16;3479095;28;20574;-51
2020/12/30 07:14:21;;;;;;;189.77;29.20;;;;;;;5.23;99.81;99266.88;3481740;28;20078;-55
2020/12/30 07:16:12;;;;;;;94.53;25.37;;;;;;;5.23;99.93;99266.88;3480456;28;20075;-52
2020/12/30 07:17:54;;;;;;;97.30;24.40;;;;;;;5.25;100.00;99277.19;3477213;28;20345;-53
2020/12/30 07:19:37;;;;;;;90.78;23.70;;;;;;;5.24;100.00;99271.19;3481360;28;20475;-54
2020/12/30 07:21:19;;;;;;;142.57;30.87;;;;;;;5.26;99.90;99271.25;3479983;28;20045;-53
2020/12/30 07:23:06;;;;;;;65.63;20.60;;;;;;;5.25;100.00;99279.78;3477552;28;20698;-55
2020/12/30 07:24:51;;;;;;;137.20;27.70;;;;;;;5.25;100.00;99284.91;3482407;28;20048;-54
2020/12/30 07:26:32;;;;;;;81.60;25.80;;;;;;;5.25;100.00;99279.78;3480054;28;20093;-55
2020/12/30 07:28:16;;;;;;;73.93;22.98;;;;;;;5.25;99.91;99269.47;3480745;28;20056;-55
2020/12/30 07:29:57;;;;;;;145.05;28.55;;;;;;;5.25;100.00;99274.63;3482184;28;20049;-52
2020/12/30 07:31:39;;;;;;;83.07;23.42;;;;;;;5.25;99.99;99282.34;3483969;28;20075;-55
2020/12/30 07:33:20;;;;;;;109.47;26.25;;;;;;;5.24;99.93;99278.91;3485354;28;20560;-55
2020/12/30 07:35:03;;;;;;;116.28;27.33;;;;;;;5.24;100.00;99267.75;3487393;28;20139;-54
2020/12/30 07:36:46;;;;;;;112.40;27.95;;;;;;;5.23;99.86;99271.13;3486101;28;20048;-55
2020/12/30 07:38:28;;;;;;;112.78;30.92;;;;;;;5.23;100.00;99266.88;3483877;28;20057;-53
2020/12/30 07:40:10;;;;;;;153.05;28.98;;;;;;;5.24;99.92;99267.75;3487257;28;20048;-54
2020/12/30 07:41:51;;;;;;;80.88;23.55;;;;;;;5.23;99.96;99260.84;3484560;28;20051;-54
2020/12/30 07:43:46;;;;;;;112.70;26.75;;;;;;;5.23;99.71;99273.72;3488996;28;20417;-54
2020/12/30 07:45:28;;;;;;;105.97;26.30;;;;;;;5.22;100.00;99271.97;3484915;28;20049;-52
2020/12/30 07:47:10;;;;;;;111.28;26.48;;;;;;;5.20;100.00;99263.34;3483916;28;20049;-55
2020/12/30 07:48:51;;;;;;;105.60;24.42;;;;;;;5.19;100.00;99254.75;3487102;28;20279;-55
2020/12/30 07:50:49;;;;;;;100.15;22.35;;;;;;;5.19;99.84;99262.47;3485599;28;20048;-55
2020/12/30 07:52:31;;;;;;;84.88;23.75;;;;;;;5.18;100.00;99261.59;3484266;28;20049;-54
2020/12/30 07:54:13;;;;;;;79.38;23.52;;;;;;;5.19;100.00;99267.63;3488187;28;20045;-53